TimeBST,TemperatureF,Dew PointF,Humidity,Sea Level PressureIn,VisibilityMPH,Wind Direction,Wind SpeedMPH,Gust SpeedMPH,PrecipitationIn,Events,Conditions,WindDirDegrees,DateUTC
12:20 AM,48.2,42.8,82,29.74,6.2,SSW,5.8,-,N/A,,Partly Cloudy,210,2012-10-05 23:20:00
12:50 AM,44.6,41.0,87,29.74,6.2,SSE,4.6,-,N/A,,Partly Cloudy,150,2012-10-05 23:50:00
1:50 AM,46.4,42.8,87,29.74,6.2,South,3.5,-,N/A,,Scattered Clouds,170,2012-10-06 00:50:00
2:50 AM,50.0,46.4,87,29.74,6.2,SW,8.1,-,N/A,,Mostly Cloudy,230,2012-10-06 01:50:00
3:50 AM,50.0,46.4,87,29.74,6.2,West,8.1,-,N/A,,Mostly Cloudy,260,2012-10-06 02:50:00
4:50 AM,48.2,44.6,87,29.77,6.2,West,6.9,-,N/A,,Scattered Clouds,270,2012-10-06 03:50:00
5:50 AM,50.0,46.4,87,29.77,6.2,NW,3.5,-,N/A,Rain,Light Rain Showers,310,2012-10-06 04:50:00
6:50 AM,48.2,46.4,93,29.80,6.2,West,3.5,-,N/A,Rain,Light Rain Showers,280,2012-10-06 05:50:00
7:20 AM,50.0,46.4,87,29.80,6.2,NW,5.8,-,N/A,,Scattered Clouds,310,2012-10-06 06:20:00
7:50 AM,48.2,46.4,93,29.80,6.2,NW,4.6,-,N/A,,Scattered Clouds,310,2012-10-06 06:50:00
8:20 AM,50.0,46.4,87,29.83,6.2,Calm,Calm,-,N/A,,Scattered Clouds,0,2012-10-06 07:20:00
8:50 AM,50.0,46.4,87,29.83,6.2,Variable,2.3,-,N/A,,Scattered Clouds,0,2012-10-06 07:50:00
9:20 AM,50.0,48.2,94,29.83,6.2,Calm,Calm,-,N/A,,Scattered Clouds,0,2012-10-06 08:20:00
9:50 AM,51.8,48.2,88,29.86,6.2,Variable,3.5,-,N/A,,Scattered Clouds,0,2012-10-06 08:50:00
10:20 AM,53.6,48.2,82,29.86,6.2,WNW,8.1,-,N/A,,Scattered Clouds,300,2012-10-06 09:20:00
10:50 AM,53.6,48.2,82,29.86,6.2,NW,6.9,-,N/A,,Scattered Clouds,320,2012-10-06 09:50:00
11:20 AM,53.6,48.2,82,29.89,6.2,WNW,8.1,-,N/A,,Scattered Clouds,290,2012-10-06 10:20:00
11:50 AM,53.6,48.2,82,29.89,6.2,WNW,11.5,-,N/A,,Scattered Clouds,290,2012-10-06 10:50:00
12:20 PM,55.4,48.2,77,29.89,6.2,WNW,11.5,-,N/A,,Scattered Clouds,290,2012-10-06 11:20:00
12:50 PM,55.4,48.2,77,29.92,6.2,WNW,12.7,-,N/A,,Scattered Clouds,290,2012-10-06 11:50:00
1:20 PM,57.2,48.2,72,29.92,6.2,West,11.5,-,N/A,,Scattered Clouds,280,2012-10-06 12:20:00
1:50 PM,57.2,46.4,67,29.92,6.2,West,12.7,-,N/A,,Scattered Clouds,280,2012-10-06 12:50:00
2:20 PM,55.4,46.4,72,29.92,6.2,West,9.2,-,N/A,,Scattered Clouds,280,2012-10-06 13:20:00
2:50 PM,55.4,46.4,72,29.95,6.2,WNW,10.4,-,N/A,,Scattered Clouds,300,2012-10-06 13:50:00
3:20 PM,55.4,46.4,72,29.95,6.2,WNW,12.7,-,N/A,,Scattered Clouds,300,2012-10-06 14:20:00
3:50 PM,55.4,44.6,67,29.95,6.2,WNW,16.1,-,N/A,,Scattered Clouds,300,2012-10-06 14:50:00
4:20 PM,53.6,44.6,72,29.95,6.2,NW,13.8,-,N/A,,Scattered Clouds,310,2012-10-06 15:20:00
4:50 PM,53.6,42.8,67,29.95,6.2,NW,13.8,-,N/A,,Scattered Clouds,310,2012-10-06 15:50:00
5:20 PM,53.6,41.0,62,29.95,6.2,WNW,11.5,-,N/A,,Scattered Clouds,300,2012-10-06 16:20:00
5:50 PM,51.8,41.0,67,29.98,6.2,WNW,10.4,-,N/A,,Scattered Clouds,300,2012-10-06 16:50:00
6:20 PM,51.8,41.0,67,29.98,6.2,NW,11.5,-,N/A,,Scattered Clouds,310,2012-10-06 17:20:00
6:50 PM,50.0,41.0,71,29.98,6.2,WNW,9.2,-,N/A,,Scattered Clouds,300,2012-10-06 17:50:00
7:20 PM,48.2,41.0,76,30.01,6.2,NW,6.9,-,N/A,,Scattered Clouds,310,2012-10-06 18:20:00
7:50 PM,46.4,39.2,76,30.01,6.2,NNW,4.6,-,N/A,,Scattered Clouds,330,2012-10-06 18:50:00
8:20 PM,46.4,39.2,76,30.04,6.2,NW,4.6,-,N/A,,Scattered Clouds,320,2012-10-06 19:20:00
8:50 PM,44.6,39.2,81,30.04,6.2,North,4.6,-,N/A,,Partly Cloudy,350,2012-10-06 19:50:00
9:20 PM,44.6,39.2,81,30.06,6.2,NNW,2.3,-,N/A,,Partly Cloudy,330,2012-10-06 20:20:00
9:50 PM,42.8,39.2,87,30.06,6.2,NW,5.8,-,N/A,,Partly Cloudy,320,2012-10-06 20:50:00
10:20 PM,42.8,39.2,87,30.06,-9999.0,Calm,Calm,-,N/A,,Clear,0,2012-10-06 21:20:00
10:50 PM,41.0,35.6,81,30.06,-9999.0,East,2.3,-,N/A,,Clear,100,2012-10-06 21:50:00
11:20 PM,39.2,37.4,93,30.09,-9999.0,Calm,Calm,-,N/A,,Clear,0,2012-10-06 22:20:00
11:50 PM,37.4,35.6,93,30.09,-9999.0,North,3.5,-,N/A,,Clear,10,2012-10-06 22:50:00